createdAt,value
2022-10-11T05:25:16.868Z,15.04
2022-10-11T05:27:57.794Z,15.17
2022-10-11T05:30:39.199Z,15.35
2022-10-11T05:33:19.028Z,15.53
2022-10-11T05:36:00.871Z,15.72
2022-10-11T05:38:41.822Z,15.77
2022-10-11T05:41:23.310Z,16.06
2022-10-11T05:44:04.777Z,16.13
2022-10-11T05:46:46.162Z,16.25
2022-10-11T05:49:27.515Z,16.30
2022-10-11T05:52:09.245Z,16.45
2022-10-11T05:54:50.283Z,16.55
2022-10-11T05:57:30.038Z,16.51
2022-10-11T06:00:11.734Z,16.73
2022-10-11T06:02:54.714Z,16.89
2022-10-11T06:05:35.994Z,16.74
2022-10-11T06:08:17.474Z,16.71
2022-10-11T06:10:58.558Z,16.87
2022-10-11T06:13:44.559Z,16.90
2022-10-11T06:16:56.531Z,17.34
2022-10-11T06:19:51.757Z,17.48
2022-10-11T06:22:51.580Z,17.88
2022-10-11T06:26:02.824Z,17.64
2022-10-11T06:28:56.877Z,17.70
2022-10-11T06:32:03.629Z,17.51
2022-10-11T06:34:57.744Z,17.72
2022-10-11T06:37:55.978Z,18.02
2022-10-11T06:40:56.880Z,17.57
2022-10-11T06:43:51.829Z,17.31
2022-10-11T06:46:54.670Z,17.77
2022-10-11T06:49:53.298Z,18.12
2022-10-11T06:52:50.612Z,18.12
2022-10-11T06:56:06.528Z,17.92
2022-10-11T06:59:01.065Z,18.31
2022-10-11T07:02:04.161Z,18.39
2022-10-11T07:04:59.317Z,18.51
2022-10-11T07:07:56.048Z,17.82
2022-10-11T07:10:59.013Z,17.63
2022-10-11T07:14:10.938Z,18.09
2022-10-11T07:17:16.470Z,18.63
2022-10-11T07:20:13.585Z,18.10
2022-10-11T07:23:13.260Z,18.39
2022-10-11T07:26:11.011Z,18.49
2022-10-11T07:29:10.020Z,18.55
2022-10-11T07:32:04.606Z,19.23
2022-10-11T07:35:07.899Z,18.88
2022-10-11T07:38:06.752Z,18.80
2022-10-11T07:41:30.754Z,18.57
2022-10-11T07:44:43.125Z,19.77
2022-10-11T07:47:40.488Z,19.12
2022-10-11T07:50:34.636Z,19.52
2022-10-11T07:53:48.042Z,18.87
2022-10-11T07:56:47.830Z,18.56
2022-10-11T07:59:45.632Z,19.37
2022-10-11T08:02:41.412Z,19.43
2022-10-11T08:05:48.050Z,19.73
2022-10-11T08:08:46.295Z,19.58
2022-10-11T08:11:39.996Z,19.65
2022-10-11T08:15:18.167Z,19.69
2022-10-11T08:18:15.839Z,19.62
2022-10-11T08:21:27.698Z,19.18
2022-10-11T08:24:27.283Z,19.32
2022-10-11T08:27:22.193Z,19.92
2022-10-11T08:30:20.049Z,19.72
2022-10-11T08:33:26.171Z,20.09
2022-10-11T08:36:24.324Z,19.80
2022-10-11T08:39:20.805Z,19.40
2022-10-11T08:42:53.384Z,20.09
2022-10-11T08:45:29.531Z,19.65
2022-10-11T08:48:02.950Z,19.97
2022-10-11T08:50:32.820Z,20.33
2022-10-11T08:53:06.392Z,19.88
2022-10-11T08:55:53.127Z,19.98
2022-10-11T08:58:24.496Z,20.45
2022-10-11T09:00:54.057Z,20.93
2022-10-11T09:03:26.612Z,19.81
2022-10-11T09:06:29.747Z,19.74
2022-10-11T09:09:26.533Z,20.57
2022-10-11T09:11:57.137Z,20.39
2022-10-11T09:14:36.902Z,20.07
2022-10-11T09:17:37.078Z,20.17
2022-10-11T09:20:07.466Z,19.78
2022-10-11T09:22:45.048Z,19.62
2022-10-11T09:25:18.948Z,19.88
2022-10-11T09:28:02.700Z,19.39
2022-10-11T09:30:31.894Z,19.35
2022-10-11T09:33:39.241Z,19.14
2022-10-11T09:36:37.762Z,19.13
2022-10-11T09:39:24.171Z,19.27
2022-10-11T09:42:05.497Z,19.52
2022-10-11T09:44:34.184Z,19.78
2022-10-11T09:47:01.642Z,19.56
2022-10-11T09:49:37.907Z,19.55
2022-10-11T09:52:07.409Z,19.41
2022-10-11T09:54:48.123Z,19.03
2022-10-11T09:57:32.737Z,18.61
2022-10-11T10:00:32.433Z,18.61
2022-10-11T10:03:02.672Z,18.44
2022-10-11T10:05:32.098Z,18.07
2022-10-11T10:08:11.432Z,17.92
2022-10-11T10:11:06.686Z,17.85
2022-10-11T10:13:49.881Z,17.66
2022-10-11T10:16:30.780Z,17.44
2022-10-11T10:19:00.530Z,17.33
2022-10-11T10:21:34.561Z,17.39
2022-10-11T10:24:24.335Z,17.40
2022-10-11T10:27:10.479Z,17.64
2022-10-11T10:29:38.667Z,17.83
2022-10-11T10:32:15.135Z,18.06
2022-10-11T10:34:52.294Z,18.16
2022-10-11T10:37:27.503Z,18.57
2022-10-11T10:40:10.418Z,18.90
2022-10-11T10:42:38.783Z,19.42
2022-10-11T10:45:12.185Z,19.11
2022-10-11T10:48:16.663Z,19.14
2022-10-11T10:50:55.974Z,19.08
2022-10-11T10:53:33.802Z,19.19
2022-10-11T10:56:12.548Z,19.13
2022-10-11T10:58:53.739Z,19.15
2022-10-11T11:01:24.689Z,19.27
2022-10-11T11:04:14.234Z,19.17
2022-10-11T11:06:51.192Z,19.08
2022-10-11T11:09:34.155Z,19.09
2022-10-11T11:12:01.968Z,18.95
2022-10-11T11:14:54.675Z,19.21
2022-10-11T11:17:25.452Z,19.36
2022-10-11T11:20:15.132Z,19.46
2022-10-11T11:23:08.310Z,19.33
2022-10-11T11:25:46.618Z,19.31
2022-10-11T11:28:59.944Z,19.60
2022-10-11T11:31:43.371Z,19.66
2022-10-11T11:34:22.263Z,19.63
2022-10-11T11:36:56.571Z,19.59
2022-10-11T11:39:35.999Z,19.61
2022-10-11T11:42:08.095Z,19.60
2022-10-11T11:44:40.515Z,19.58
2022-10-11T11:47:11.270Z,19.52
2022-10-11T11:52:26.856Z,19.01
2022-10-11T11:55:09.793Z,18.66
2022-10-11T11:58:08.243Z,18.58
2022-10-11T12:01:04.007Z,18.62
2022-10-11T12:03:39.201Z,18.52
2022-10-11T12:06:12.561Z,18.57
2022-10-11T12:08:47.015Z,18.68
2022-10-11T12:11:22.757Z,18.64
2022-10-11T12:13:51.307Z,18.69
2022-10-11T12:16:19.199Z,18.76
2022-10-11T12:18:49.937Z,18.71
2022-10-11T12:21:34.662Z,18.74
2022-10-11T12:24:20.811Z,18.68
2022-10-11T12:26:49.904Z,18.70
2022-10-11T12:29:24.573Z,18.71
2022-10-11T12:32:01.457Z,18.81
2022-10-11T12:37:31.950Z,19.05
2022-10-11T12:40:00.954Z,19.35
2022-10-11T12:42:34.720Z,19.56
2022-10-11T12:45:14.611Z,19.93
2022-10-11T12:48:03.919Z,20.31
2022-10-11T12:50:37.623Z,20.00
2022-10-11T12:53:39.691Z,19.81
2022-10-11T12:56:27.967Z,19.87
2022-10-11T12:59:03.006Z,19.73
2022-10-11T13:01:47.487Z,19.86
2022-10-11T13:04:15.913Z,19.80
2022-10-11T13:06:50.567Z,20.14
2022-10-11T13:09:39.389Z,20.40
2022-10-11T13:12:18.427Z,20.53
2022-10-11T13:14:48.452Z,20.22
2022-10-11T13:17:38.682Z,19.80
2022-10-11T13:20:06.808Z,19.80
2022-10-11T13:22:34.715Z,19.65
2022-10-11T13:25:04.862Z,19.39
2022-10-11T13:27:33.773Z,19.66
2022-10-11T13:30:04.092Z,19.63
2022-10-11T13:32:32.119Z,19.53
2022-10-11T13:35:07.274Z,19.52
2022-10-11T13:37:41.481Z,19.31
2022-10-11T13:40:16.402Z,19.23
2022-10-11T13:42:44.282Z,19.23
2022-10-11T13:45:17.590Z,19.17
2022-10-11T13:47:47.318Z,19.25
2022-10-11T13:50:15.568Z,19.13
2022-10-11T13:52:52.158Z,19.18
2022-10-11T13:55:37.253Z,19.12
2022-10-11T13:58:13.809Z,19.02
2022-10-11T14:00:59.246Z,18.96
2022-10-11T14:03:43.871Z,18.85
2022-10-11T14:06:11.863Z,18.75
2022-10-11T14:08:43.130Z,18.69
2022-10-11T14:11:12.007Z,18.51
2022-10-11T14:13:46.142Z,18.50
2022-10-11T14:16:20.834Z,18.42
2022-10-11T14:18:50.149Z,18.24
2022-10-11T14:21:20.958Z,18.12
2022-10-11T14:24:03.054Z,18.07
2022-10-11T14:26:39.001Z,18.06
2022-10-11T14:29:21.116Z,18.04
2022-10-11T14:31:49.642Z,18.08
2022-10-11T14:34:21.193Z,18.06
2022-10-11T14:36:49.096Z,18.09
2022-10-11T14:39:21.469Z,18.06
2022-10-11T14:41:49.884Z,18.06
2022-10-11T14:44:18.105Z,17.99
2022-10-11T14:46:46.424Z,18.03
2022-10-11T14:49:18.715Z,18.06
2022-10-11T14:51:50.211Z,17.99
2022-10-11T14:54:19.219Z,18.00
2022-10-11T14:56:47.047Z,17.99
2022-10-11T14:59:16.136Z,17.96
2022-10-11T15:01:43.804Z,17.85
2022-10-11T15:04:11.912Z,17.91
2022-10-11T15:06:40.151Z,17.94
2022-10-11T15:09:08.009Z,17.99
2022-10-11T15:11:36.715Z,17.93
2022-10-11T15:14:05.740Z,17.94
2022-10-11T15:16:33.532Z,17.90
2022-10-11T15:19:01.174Z,17.82
2022-10-11T15:21:29.329Z,17.87
2022-10-11T15:23:57.380Z,17.87
2022-10-11T15:26:26.727Z,18.04
2022-10-11T15:28:55.414Z,17.87
2022-10-11T15:31:23.059Z,17.82
2022-10-11T15:33:50.792Z,17.82
2022-10-11T15:36:20.251Z,17.74
2022-10-11T15:38:48.384Z,17.68
2022-10-11T15:41:17.460Z,17.56
2022-10-11T15:43:45.544Z,17.39
2022-10-11T15:46:14.837Z,17.27
2022-10-11T15:48:42.449Z,17.16
2022-10-11T15:51:10.224Z,17.10
2022-10-11T15:53:38.256Z,17.01
2022-10-11T15:56:08.153Z,16.93
2022-10-11T15:58:37.827Z,16.87
2022-10-11T16:01:16.654Z,16.76
2022-10-11T16:03:44.795Z,16.71
2022-10-11T16:06:13.387Z,16.70
2022-10-11T16:08:42.941Z,16.67
2022-10-11T16:11:10.853Z,16.63
2022-10-11T16:13:38.577Z,16.56
2022-10-11T16:16:07.304Z,16.53
2022-10-11T16:18:36.014Z,16.54
2022-10-11T16:21:09.353Z,16.55
2022-10-11T16:23:37.649Z,16.55
2022-10-11T16:26:07.287Z,16.55
2022-10-11T16:28:35.800Z,16.51
2022-10-11T16:31:11.345Z,16.48
2022-10-11T16:33:45.934Z,16.38
2022-10-11T16:36:32.154Z,16.31
2022-10-11T16:39:00.364Z,16.28
2022-10-11T16:41:28.062Z,16.28
2022-10-11T16:43:55.970Z,16.30
2022-10-11T16:46:23.623Z,16.27
2022-10-11T16:48:54.148Z,16.27
2022-10-11T16:51:22.074Z,16.28
2022-10-11T16:53:50.009Z,16.33
2022-10-11T16:56:18.240Z,16.39
2022-10-11T16:58:46.252Z,16.44
2022-10-11T17:01:14.056Z,16.46
2022-10-11T17:03:42.006Z,16.46
2022-10-11T17:06:10.016Z,16.44
2022-10-11T17:08:38.147Z,16.41
2022-10-11T17:11:06.695Z,16.39
2022-10-11T17:13:34.401Z,16.39
2022-10-11T17:16:02.102Z,16.43
2022-10-11T17:18:29.800Z,16.43
2022-10-11T17:21:02.426Z,16.41
2022-10-11T17:23:30.225Z,16.42
